sensor_id;sensor_type;location;lat;lon;timestamp;P1;durP1;ratioP1;P2;durP2;ratioP2
2305;SDS011;1161;51.922;8.896;2022-10-31T00:01:58;27.40;;;14.73;;
2305;SDS011;1161;51.922;8.896;2022-10-31T00:04:25;37.33;;;13.50;;
2305;SDS011;1161;51.922;8.896;2022-10-31T00:06:51;22.50;;;11.80;;
2305;SDS011;1161;51.922;8.896;2022-10-31T00:09:18;34.27;;;10.57;;
2305;SDS011;1161;51.922;8.896;2022-10-31T00:11:45;21.10;;;10.97;;
2305;SDS011;1161;51.922;8.896;2022-10-31T00:14:11;21.50;;;11.20;;
2305;SDS011;1161;51.922;8.896;2022-10-31T00:16:38;35.33;;;11.73;;
2305;SDS011;1161;51.922;8.896;2022-10-31T00:19:07;20.43;;;11.20;;
2305;SDS011;1161;51.922;8.896;2022-10-31T00:21:34;20.60;;;11.60;;
2305;SDS011;1161;51.922;8.896;2022-10-31T00:24:01;28.20;;;12.13;;
2305;SDS011;1161;51.922;8.896;2022-10-31T00:26:29;24.93;;;11.30;;
2305;SDS011;1161;51.922;8.896;2022-10-31T00:28:56;24.17;;;10.33;;
2305;SDS011;1161;51.922;8.896;2022-10-31T00:31:23;34.13;;;12.10;;
2305;SDS011;1161;51.922;8.896;2022-10-31T00:33:50;24.20;;;12.37;;
2305;SDS011;1161;51.922;8.896;2022-10-31T00:36:19;25.87;;;12.20;;
2305;SDS011;1161;51.922;8.896;2022-10-31T00:38:46;27.93;;;11.90;;
2305;SDS011;1161;51.922;8.896;2022-10-31T00:41:14;26.00;;;13.73;;
2305;SDS011;1161;51.922;8.896;2022-10-31T00:43:41;29.63;;;13.37;;
2305;SDS011;1161;51.922;8.896;2022-10-31T00:46:10;36.37;;;14.60;;
2305;SDS011;1161;51.922;8.896;2022-10-31T00:48:37;24.90;;;13.43;;
2305;SDS011;1161;51.922;8.896;2022-10-31T00:51:03;35.40;;;15.10;;
2305;SDS011;1161;51.922;8.896;2022-10-31T00:53:32;41.27;;;15.27;;
2305;SDS011;1161;51.922;8.896;2022-10-31T00:55:58;31.90;;;14.10;;
2305;SDS011;1161;51.922;8.896;2022-10-31T00:58:25;28.20;;;12.47;;
2305;SDS011;1161;51.922;8.896;2022-10-31T01:00:52;33.27;;;14.63;;
2305;SDS011;1161;51.922;8.896;2022-10-31T01:03:21;40.83;;;16.07;;
2305;SDS011;1161;51.922;8.896;2022-10-31T01:05:55;27.70;;;14.50;;
2305;SDS011;1161;51.922;8.896;2022-10-31T01:08:23;38.27;;;15.63;;
2305;SDS011;1161;51.922;8.896;2022-10-31T01:10:59;48.97;;;15.13;;
2305;SDS011;1161;51.922;8.896;2022-10-31T01:13:26;50.53;;;20.50;;
2305;SDS011;1161;51.922;8.896;2022-10-31T01:15:53;39.63;;;15.40;;
2305;SDS011;1161;51.922;8.896;2022-10-31T01:18:20;37.17;;;17.47;;
2305;SDS011;1161;51.922;8.896;2022-10-31T01:20:56;54.43;;;18.87;;
2305;SDS011;1161;51.922;8.896;2022-10-31T01:23:23;31.30;;;16.77;;
2305;SDS011;1161;51.922;8.896;2022-10-31T01:25:53;48.53;;;17.50;;
2305;SDS011;1161;51.922;8.896;2022-10-31T01:28:26;35.00;;;17.37;;
2305;SDS011;1161;51.922;8.896;2022-10-31T01:30:53;32.80;;;17.67;;
2305;SDS011;1161;51.922;8.896;2022-10-31T01:33:19;36.00;;;15.20;;
2305;SDS011;1161;51.922;8.896;2022-10-31T01:35:46;40.43;;;16.93;;
2305;SDS011;1161;51.922;8.896;2022-10-31T01:38:13;26.43;;;14.50;;
2305;SDS011;1161;51.922;8.896;2022-10-31T01:40:39;35.53;;;14.43;;
2305;SDS011;1161;51.922;8.896;2022-10-31T01:43:09;36.87;;;15.93;;
2305;SDS011;1161;51.922;8.896;2022-10-31T01:45:38;25.37;;;14.23;;
2305;SDS011;1161;51.922;8.896;2022-10-31T01:48:05;29.63;;;14.90;;
2305;SDS011;1161;51.922;8.896;2022-10-31T01:50:33;22.67;;;13.77;;
2305;SDS011;1161;51.922;8.896;2022-10-31T01:53:02;33.40;;;16.30;;
2305;SDS011;1161;51.922;8.896;2022-10-31T01:55:33;41.93;;;14.93;;
2305;SDS011;1161;51.922;8.896;2022-10-31T01:58:02;25.93;;;14.33;;
2305;SDS011;1161;51.922;8.896;2022-10-31T02:00:32;34.53;;;16.67;;
2305;SDS011;1161;51.922;8.896;2022-10-31T02:02:59;38.47;;;15.10;;
2305;SDS011;1161;51.922;8.896;2022-10-31T02:05:27;22.70;;;13.67;;
2305;SDS011;1161;51.922;8.896;2022-10-31T02:07:55;29.67;;;13.67;;
2305;SDS011;1161;51.922;8.896;2022-10-31T02:10:23;32.90;;;13.80;;
2305;SDS011;1161;51.922;8.896;2022-10-31T02:12:51;29.53;;;13.43;;
2305;SDS011;1161;51.922;8.896;2022-10-31T02:15:18;29.23;;;13.23;;
2305;SDS011;1161;51.922;8.896;2022-10-31T02:17:46;24.83;;;11.50;;
2305;SDS011;1161;51.922;8.896;2022-10-31T02:20:15;36.50;;;13.73;;
2305;SDS011;1161;51.922;8.896;2022-10-31T02:22:50;28.90;;;12.83;;
2305;SDS011;1161;51.922;8.896;2022-10-31T02:25:35;25.40;;;14.03;;
2305;SDS011;1161;51.922;8.896;2022-10-31T02:28:20;37.33;;;12.80;;
2305;SDS011;1161;51.922;8.896;2022-10-31T02:31:02;31.93;;;12.30;;
2305;SDS011;1161;51.922;8.896;2022-10-31T02:33:39;56.83;;;15.40;;
2305;SDS011;1161;51.922;8.896;2022-10-31T02:36:10;30.00;;;16.30;;
2305;SDS011;1161;51.922;8.896;2022-10-31T02:38:42;32.37;;;13.77;;
2305;SDS011;1161;51.922;8.896;2022-10-31T02:41:16;36.97;;;13.67;;
2305;SDS011;1161;51.922;8.896;2022-10-31T02:43:47;24.50;;;13.90;;
2305;SDS011;1161;51.922;8.896;2022-10-31T02:46:24;26.57;;;13.63;;
2305;SDS011;1161;51.922;8.896;2022-10-31T02:48:55;36.73;;;15.20;;
2305;SDS011;1161;51.922;8.896;2022-10-31T02:51:31;28.10;;;12.07;;
2305;SDS011;1161;51.922;8.896;2022-10-31T02:53:58;31.33;;;16.47;;
2305;SDS011;1161;51.922;8.896;2022-10-31T02:56:25;35.30;;;17.10;;
2305;SDS011;1161;51.922;8.896;2022-10-31T02:58:52;37.83;;;17.80;;
2305;SDS011;1161;51.922;8.896;2022-10-31T03:01:24;39.23;;;18.23;;
2305;SDS011;1161;51.922;8.896;2022-10-31T03:04:01;40.10;;;15.53;;
2305;SDS011;1161;51.922;8.896;2022-10-31T03:06:39;43.27;;;17.13;;
2305;SDS011;1161;51.922;8.896;2022-10-31T03:09:10;38.83;;;17.00;;
2305;SDS011;1161;51.922;8.896;2022-10-31T03:11:42;29.80;;;16.10;;
2305;SDS011;1161;51.922;8.896;2022-10-31T03:14:12;41.00;;;16.57;;
2305;SDS011;1161;51.922;8.896;2022-10-31T03:16:45;35.77;;;16.13;;
2305;SDS011;1161;51.922;8.896;2022-10-31T03:19:14;44.90;;;16.73;;
2305;SDS011;1161;51.922;8.896;2022-10-31T03:21:43;30.73;;;14.53;;
2305;SDS011;1161;51.922;8.896;2022-10-31T03:24:12;35.97;;;14.20;;
2305;SDS011;1161;51.922;8.896;2022-10-31T03:26:40;34.80;;;15.10;;
2305;SDS011;1161;51.922;8.896;2022-10-31T03:29:09;34.00;;;15.90;;
2305;SDS011;1161;51.922;8.896;2022-10-31T03:31:38;27.43;;;14.60;;
2305;SDS011;1161;51.922;8.896;2022-10-31T03:34:10;36.47;;;16.13;;
2305;SDS011;1161;51.922;8.896;2022-10-31T03:36:39;45.57;;;18.70;;
2305;SDS011;1161;51.922;8.896;2022-10-31T03:39:07;39.00;;;19.00;;
2305;SDS011;1161;51.922;8.896;2022-10-31T03:41:38;31.00;;;15.53;;
2305;SDS011;1161;51.922;8.896;2022-10-31T03:44:10;40.30;;;16.57;;
2305;SDS011;1161;51.922;8.896;2022-10-31T03:46:38;33.10;;;15.00;;
2305;SDS011;1161;51.922;8.896;2022-10-31T03:49:05;42.40;;;18.30;;
2305;SDS011;1161;51.922;8.896;2022-10-31T03:51:34;61.10;;;20.20;;
2305;SDS011;1161;51.922;8.896;2022-10-31T03:54:07;50.40;;;19.93;;
2305;SDS011;1161;51.922;8.896;2022-10-31T03:56:36;42.43;;;18.40;;
2305;SDS011;1161;51.922;8.896;2022-10-31T03:59:07;48.77;;;20.20;;
2305;SDS011;1161;51.922;8.896;2022-10-31T04:01:38;46.63;;;18.23;;
2305;SDS011;1161;51.922;8.896;2022-10-31T04:04:07;39.80;;;18.40;;
2305;SDS011;1161;51.922;8.896;2022-10-31T04:06:36;45.10;;;21.20;;
2305;SDS011;1161;51.922;8.896;2022-10-31T04:09:05;72.73;;;23.07;;
2305;SDS011;1161;51.922;8.896;2022-10-31T04:11:33;68.13;;;24.20;;
2305;SDS011;1161;51.922;8.896;2022-10-31T04:14:01;54.67;;;22.13;;
2305;SDS011;1161;51.922;8.896;2022-10-31T04:16:40;48.83;;;20.23;;
2305;SDS011;1161;51.922;8.896;2022-10-31T04:19:09;48.73;;;19.90;;
2305;SDS011;1161;51.922;8.896;2022-10-31T04:21:45;43.43;;;20.60;;
2305;SDS011;1161;51.922;8.896;2022-10-31T04:24:17;53.13;;;23.80;;
2305;SDS011;1161;51.922;8.896;2022-10-31T04:26:44;45.70;;;23.40;;
2305;SDS011;1161;51.922;8.896;2022-10-31T04:29:12;52.37;;;24.30;;
2305;SDS011;1161;51.922;8.896;2022-10-31T04:31:39;53.53;;;24.07;;
2305;SDS011;1161;51.922;8.896;2022-10-31T04:34:07;50.30;;;20.63;;
2305;SDS011;1161;51.922;8.896;2022-10-31T04:36:34;59.13;;;23.80;;
2305;SDS011;1161;51.922;8.896;2022-10-31T04:39:04;48.07;;;22.33;;
2305;SDS011;1161;51.922;8.896;2022-10-31T04:41:31;40.07;;;19.40;;
2305;SDS011;1161;51.922;8.896;2022-10-31T04:43:58;55.77;;;21.17;;
2305;SDS011;1161;51.922;8.896;2022-10-31T04:46:25;46.57;;;21.50;;
2305;SDS011;1161;51.922;8.896;2022-10-31T04:48:52;55.20;;;22.50;;
2305;SDS011;1161;51.922;8.896;2022-10-31T04:51:19;54.53;;;21.93;;
2305;SDS011;1161;51.922;8.896;2022-10-31T04:53:48;50.10;;;22.37;;
2305;SDS011;1161;51.922;8.896;2022-10-31T04:56:16;53.17;;;22.63;;
2305;SDS011;1161;51.922;8.896;2022-10-31T04:58:44;38.57;;;20.67;;
2305;SDS011;1161;51.922;8.896;2022-10-31T05:01:11;58.03;;;21.00;;
2305;SDS011;1161;51.922;8.896;2022-10-31T05:03:38;31.20;;;18.23;;
2305;SDS011;1161;51.922;8.896;2022-10-31T05:06:06;40.47;;;19.27;;
2305;SDS011;1161;51.922;8.896;2022-10-31T05:08:33;43.30;;;18.67;;
2305;SDS011;1161;51.922;8.896;2022-10-31T05:11:02;32.70;;;17.37;;
2305;SDS011;1161;51.922;8.896;2022-10-31T05:13:31;46.50;;;20.83;;
2305;SDS011;1161;51.922;8.896;2022-10-31T05:16:01;50.07;;;22.67;;
2305;SDS011;1161;51.922;8.896;2022-10-31T05:18:28;56.60;;;21.97;;
2305;SDS011;1161;51.922;8.896;2022-10-31T05:20:57;41.67;;;19.80;;
2305;SDS011;1161;51.922;8.896;2022-10-31T05:23:25;52.80;;;23.00;;
2305;SDS011;1161;51.922;8.896;2022-10-31T05:25:52;48.10;;;21.63;;
2305;SDS011;1161;51.922;8.896;2022-10-31T05:28:23;37.10;;;18.20;;
2305;SDS011;1161;51.922;8.896;2022-10-31T05:30:52;40.53;;;17.50;;
2305;SDS011;1161;51.922;8.896;2022-10-31T05:33:19;39.20;;;21.83;;
2305;SDS011;1161;51.922;8.896;2022-10-31T05:35:46;37.73;;;19.77;;
2305;SDS011;1161;51.922;8.896;2022-10-31T05:38:15;42.03;;;20.00;;
2305;SDS011;1161;51.922;8.896;2022-10-31T05:40:46;49.60;;;20.97;;
2305;SDS011;1161;51.922;8.896;2022-10-31T05:43:18;56.37;;;23.00;;
2305;SDS011;1161;51.922;8.896;2022-10-31T05:45:53;60.57;;;26.20;;
2305;SDS011;1161;51.922;8.896;2022-10-31T05:48:19;70.50;;;26.60;;
2305;SDS011;1161;51.922;8.896;2022-10-31T05:50:47;60.67;;;29.50;;
2305;SDS011;1161;51.922;8.896;2022-10-31T05:53:14;76.90;;;30.67;;
2305;SDS011;1161;51.922;8.896;2022-10-31T05:55:41;73.17;;;29.80;;
2305;SDS011;1161;51.922;8.896;2022-10-31T05:58:09;58.43;;;27.60;;
2305;SDS011;1161;51.922;8.896;2022-10-31T06:00:40;60.40;;;28.00;;
2305;SDS011;1161;51.922;8.896;2022-10-31T06:03:10;73.87;;;29.10;;
2305;SDS011;1161;51.922;8.896;2022-10-31T06:05:37;59.87;;;24.77;;
2305;SDS011;1161;51.922;8.896;2022-10-31T06:08:07;49.00;;;23.30;;
2305;SDS011;1161;51.922;8.896;2022-10-31T06:10:37;56.33;;;24.50;;
2305;SDS011;1161;51.922;8.896;2022-10-31T06:13:05;57.07;;;25.97;;
2305;SDS011;1161;51.922;8.896;2022-10-31T06:15:33;66.70;;;27.17;;
2305;SDS011;1161;51.922;8.896;2022-10-31T06:18:00;64.70;;;24.87;;
2305;SDS011;1161;51.922;8.896;2022-10-31T06:20:29;67.40;;;25.53;;
2305;SDS011;1161;51.922;8.896;2022-10-31T06:22:57;68.27;;;26.50;;
2305;SDS011;1161;51.922;8.896;2022-10-31T06:25:25;59.37;;;24.97;;
2305;SDS011;1161;51.922;8.896;2022-10-31T06:27:52;57.90;;;22.23;;
2305;SDS011;1161;51.922;8.896;2022-10-31T06:30:20;56.47;;;21.73;;
2305;SDS011;1161;51.922;8.896;2022-10-31T06:32:49;71.03;;;28.93;;
2305;SDS011;1161;51.922;8.896;2022-10-31T06:35:16;54.90;;;26.00;;
2305;SDS011;1161;51.922;8.896;2022-10-31T06:37:51;61.83;;;28.10;;
2305;SDS011;1161;51.922;8.896;2022-10-31T06:40:19;71.03;;;26.57;;
2305;SDS011;1161;51.922;8.896;2022-10-31T06:42:47;66.83;;;27.80;;
2305;SDS011;1161;51.922;8.896;2022-10-31T06:45:14;68.57;;;27.77;;
2305;SDS011;1161;51.922;8.896;2022-10-31T06:47:41;64.47;;;29.30;;
2305;SDS011;1161;51.922;8.896;2022-10-31T06:50:08;74.80;;;29.80;;
2305;SDS011;1161;51.922;8.896;2022-10-31T06:52:36;61.93;;;26.40;;
2305;SDS011;1161;51.922;8.896;2022-10-31T06:55:04;67.97;;;28.87;;
2305;SDS011;1161;51.922;8.896;2022-10-31T06:57:31;58.57;;;26.67;;
2305;SDS011;1161;51.922;8.896;2022-10-31T06:59:58;61.00;;;23.60;;
2305;SDS011;1161;51.922;8.896;2022-10-31T07:02:25;82.73;;;26.87;;
2305;SDS011;1161;51.922;8.896;2022-10-31T07:04:55;52.80;;;26.93;;
2305;SDS011;1161;51.922;8.896;2022-10-31T07:07:22;74.83;;;30.03;;
2305;SDS011;1161;51.922;8.896;2022-10-31T07:09:53;82.97;;;33.57;;
2305;SDS011;1161;51.922;8.896;2022-10-31T07:12:23;84.73;;;30.13;;
2305;SDS011;1161;51.922;8.896;2022-10-31T07:14:51;70.77;;;29.83;;
2305;SDS011;1161;51.922;8.896;2022-10-31T07:17:19;80.37;;;30.67;;
2305;SDS011;1161;51.922;8.896;2022-10-31T07:19:46;67.60;;;28.13;;
2305;SDS011;1161;51.922;8.896;2022-10-31T07:22:14;64.37;;;29.73;;
2305;SDS011;1161;51.922;8.896;2022-10-31T07:24:40;67.67;;;29.87;;
2305;SDS011;1161;51.922;8.896;2022-10-31T07:27:07;62.90;;;26.60;;
2305;SDS011;1161;51.922;8.896;2022-10-31T07:29:36;68.63;;;29.47;;
2305;SDS011;1161;51.922;8.896;2022-10-31T07:32:03;74.43;;;30.27;;
2305;SDS011;1161;51.922;8.896;2022-10-31T07:34:31;71.40;;;31.83;;
2305;SDS011;1161;51.922;8.896;2022-10-31T07:36:58;70.63;;;31.13;;
2305;SDS011;1161;51.922;8.896;2022-10-31T07:39:28;87.27;;;34.47;;
2305;SDS011;1161;51.922;8.896;2022-10-31T07:41:57;101.23;;;35.23;;
2305;SDS011;1161;51.922;8.896;2022-10-31T07:44:24;77.90;;;32.83;;
2305;SDS011;1161;51.922;8.896;2022-10-31T07:46:52;85.97;;;34.67;;
2305;SDS011;1161;51.922;8.896;2022-10-31T07:49:19;80.50;;;35.17;;
2305;SDS011;1161;51.922;8.896;2022-10-31T07:51:45;73.83;;;32.03;;
2305;SDS011;1161;51.922;8.896;2022-10-31T07:54:12;93.70;;;35.20;;
2305;SDS011;1161;51.922;8.896;2022-10-31T07:56:39;77.90;;;35.03;;
2305;SDS011;1161;51.922;8.896;2022-10-31T07:59:05;73.23;;;33.20;;
2305;SDS011;1161;51.922;8.896;2022-10-31T08:01:32;86.70;;;33.20;;
2305;SDS011;1161;51.922;8.896;2022-10-31T08:04:00;86.67;;;34.90;;
2305;SDS011;1161;51.922;8.896;2022-10-31T08:06:27;72.80;;;32.43;;
2305;SDS011;1161;51.922;8.896;2022-10-31T08:08:53;80.03;;;32.13;;
2305;SDS011;1161;51.922;8.896;2022-10-31T08:11:20;88.80;;;36.30;;
2305;SDS011;1161;51.922;8.896;2022-10-31T08:13:47;68.67;;;33.33;;
2305;SDS011;1161;51.922;8.896;2022-10-31T08:16:14;86.03;;;35.40;;
2305;SDS011;1161;51.922;8.896;2022-10-31T08:18:41;81.77;;;38.33;;
2305;SDS011;1161;51.922;8.896;2022-10-31T08:21:09;86.63;;;35.60;;
2305;SDS011;1161;51.922;8.896;2022-10-31T08:23:36;101.20;;;38.27;;
2305;SDS011;1161;51.922;8.896;2022-10-31T08:26:02;107.43;;;39.40;;
2305;SDS011;1161;51.922;8.896;2022-10-31T08:28:31;93.13;;;35.93;;
2305;SDS011;1161;51.922;8.896;2022-10-31T08:30:58;88.27;;;37.67;;
2305;SDS011;1161;51.922;8.896;2022-10-31T08:33:25;100.47;;;39.73;;
2305;SDS011;1161;51.922;8.896;2022-10-31T08:35:51;96.57;;;39.53;;
2305;SDS011;1161;51.922;8.896;2022-10-31T08:38:19;91.07;;;37.80;;
2305;SDS011;1161;51.922;8.896;2022-10-31T08:40:48;106.63;;;42.60;;
2305;SDS011;1161;51.922;8.896;2022-10-31T08:43:16;90.77;;;36.17;;
2305;SDS011;1161;51.922;8.896;2022-10-31T08:45:43;99.63;;;38.40;;
2305;SDS011;1161;51.922;8.896;2022-10-31T08:48:11;82.23;;;37.80;;
2305;SDS011;1161;51.922;8.896;2022-10-31T08:50:38;95.87;;;38.30;;
2305;SDS011;1161;51.922;8.896;2022-10-31T08:53:06;85.60;;;37.10;;
2305;SDS011;1161;51.922;8.896;2022-10-31T08:55:35;84.37;;;35.60;;
2305;SDS011;1161;51.922;8.896;2022-10-31T08:58:02;92.77;;;38.30;;
2305;SDS011;1161;51.922;8.896;2022-10-31T09:00:30;83.57;;;35.73;;
2305;SDS011;1161;51.922;8.896;2022-10-31T09:02:57;74.73;;;36.90;;
2305;SDS011;1161;51.922;8.896;2022-10-31T09:05:24;83.27;;;38.60;;
2305;SDS011;1161;51.922;8.896;2022-10-31T09:07:54;96.30;;;35.10;;
2305;SDS011;1161;51.922;8.896;2022-10-31T09:10:22;85.63;;;35.10;;
2305;SDS011;1161;51.922;8.896;2022-10-31T09:12:55;85.67;;;34.87;;
2305;SDS011;1161;51.922;8.896;2022-10-31T09:15:22;88.67;;;34.40;;
2305;SDS011;1161;51.922;8.896;2022-10-31T09:17:49;92.13;;;36.80;;
2305;SDS011;1161;51.922;8.896;2022-10-31T09:20:16;87.53;;;35.00;;
2305;SDS011;1161;51.922;8.896;2022-10-31T09:22:43;86.17;;;36.17;;
2305;SDS011;1161;51.922;8.896;2022-10-31T09:25:10;94.73;;;38.97;;
2305;SDS011;1161;51.922;8.896;2022-10-31T09:27:37;82.47;;;38.40;;
2305;SDS011;1161;51.922;8.896;2022-10-31T09:30:05;91.93;;;37.67;;
2305;SDS011;1161;51.922;8.896;2022-10-31T09:32:33;90.47;;;36.90;;
2305;SDS011;1161;51.922;8.896;2022-10-31T09:34:59;75.43;;;34.43;;
2305;SDS011;1161;51.922;8.896;2022-10-31T09:37:26;75.30;;;33.67;;
2305;SDS011;1161;51.922;8.896;2022-10-31T09:39:53;75.73;;;34.50;;
2305;SDS011;1161;51.922;8.896;2022-10-31T09:45:22;89.43;;;36.90;;
2305;SDS011;1161;51.922;8.896;2022-10-31T09:47:57;92.30;;;36.07;;
2305;SDS011;1161;51.922;8.896;2022-10-31T09:50:32;82.60;;;34.13;;
2305;SDS011;1161;51.922;8.896;2022-10-31T09:53:07;95.73;;;35.03;;
2305;SDS011;1161;51.922;8.896;2022-10-31T09:55:37;68.53;;;32.07;;
2305;SDS011;1161;51.922;8.896;2022-10-31T09:58:07;88.33;;;31.20;;
2305;SDS011;1161;51.922;8.896;2022-10-31T10:00:36;73.67;;;33.53;;
2305;SDS011;1161;51.922;8.896;2022-10-31T10:03:06;91.93;;;33.57;;
2305;SDS011;1161;51.922;8.896;2022-10-31T10:05:39;65.80;;;29.83;;
2305;SDS011;1161;51.922;8.896;2022-10-31T10:08:16;85.37;;;32.33;;
2305;SDS011;1161;51.922;8.896;2022-10-31T10:10:47;69.50;;;29.07;;
2305;SDS011;1161;51.922;8.896;2022-10-31T10:13:30;68.53;;;29.97;;
2305;SDS011;1161;51.922;8.896;2022-10-31T10:16:14;71.20;;;27.60;;
2305;SDS011;1161;51.922;8.896;2022-10-31T10:18:50;63.20;;;28.13;;
2305;SDS011;1161;51.922;8.896;2022-10-31T10:21:25;75.73;;;31.20;;
2305;SDS011;1161;51.922;8.896;2022-10-31T10:24:05;68.10;;;29.50;;
2305;SDS011;1161;51.922;8.896;2022-10-31T10:26:40;66.07;;;27.07;;
2305;SDS011;1161;51.922;8.896;2022-10-31T10:29:15;46.40;;;25.77;;
2305;SDS011;1161;51.922;8.896;2022-10-31T10:31:50;53.90;;;26.60;;
2305;SDS011;1161;51.922;8.896;2022-10-31T10:34:18;61.70;;;27.07;;
2305;SDS011;1161;51.922;8.896;2022-10-31T10:36:48;67.37;;;27.80;;
2305;SDS011;1161;51.922;8.896;2022-10-31T10:39:20;64.70;;;24.10;;
2305;SDS011;1161;51.922;8.896;2022-10-31T10:41:49;59.93;;;23.53;;
2305;SDS011;1161;51.922;8.896;2022-10-31T10:44:34;47.50;;;22.07;;
2305;SDS011;1161;51.922;8.896;2022-10-31T10:47:22;58.03;;;24.97;;
2305;SDS011;1161;51.922;8.896;2022-10-31T10:50:06;51.43;;;23.87;;
2305;SDS011;1161;51.922;8.896;2022-10-31T10:52:40;56.07;;;21.57;;
2305;SDS011;1161;51.922;8.896;2022-10-31T10:55:13;44.70;;;23.07;;
2305;SDS011;1161;51.922;8.896;2022-10-31T10:57:49;42.33;;;18.77;;
2305;SDS011;1161;51.922;8.896;2022-10-31T11:00:21;48.77;;;19.70;;
2305;SDS011;1161;51.922;8.896;2022-10-31T11:02:50;48.13;;;23.03;;
2305;SDS011;1161;51.922;8.896;2022-10-31T11:05:21;73.20;;;20.93;;
2305;SDS011;1161;51.922;8.896;2022-10-31T11:07:49;47.33;;;20.47;;
2305;SDS011;1161;51.922;8.896;2022-10-31T11:10:17;42.30;;;18.07;;
2305;SDS011;1161;51.922;8.896;2022-10-31T11:12:44;46.30;;;19.50;;
2305;SDS011;1161;51.922;8.896;2022-10-31T11:15:17;39.57;;;17.77;;
2305;SDS011;1161;51.922;8.896;2022-10-31T11:17:47;38.13;;;15.60;;
2305;SDS011;1161;51.922;8.896;2022-10-31T11:20:23;36.53;;;14.73;;
2305;SDS011;1161;51.922;8.896;2022-10-31T11:23:00;32.90;;;17.13;;
2305;SDS011;1161;51.922;8.896;2022-10-31T11:25:29;36.37;;;16.67;;
2305;SDS011;1161;51.922;8.896;2022-10-31T11:27:59;47.10;;;17.07;;
2305;SDS011;1161;51.922;8.896;2022-10-31T11:30:26;27.33;;;15.13;;
2305;SDS011;1161;51.922;8.896;2022-10-31T11:32:54;32.87;;;15.77;;
2305;SDS011;1161;51.922;8.896;2022-10-31T11:35:23;28.53;;;14.30;;
2305;SDS011;1161;51.922;8.896;2022-10-31T11:37:51;31.60;;;15.00;;
2305;SDS011;1161;51.922;8.896;2022-10-31T11:40:20;34.27;;;14.80;;
2305;SDS011;1161;51.922;8.896;2022-10-31T11:42:48;31.33;;;14.23;;
2305;SDS011;1161;51.922;8.896;2022-10-31T11:45:16;28.90;;;13.20;;
2305;SDS011;1161;51.922;8.896;2022-10-31T11:47:47;27.70;;;12.43;;
2305;SDS011;1161;51.922;8.896;2022-10-31T11:50:20;25.13;;;13.07;;
2305;SDS011;1161;51.922;8.896;2022-10-31T11:52:48;27.67;;;14.97;;
2305;SDS011;1161;51.922;8.896;2022-10-31T11:55:16;24.27;;;11.20;;
2305;SDS011;1161;51.922;8.896;2022-10-31T11:57:44;22.73;;;13.03;;
2305;SDS011;1161;51.922;8.896;2022-10-31T12:00:20;31.43;;;11.07;;
2305;SDS011;1161;51.922;8.896;2022-10-31T12:02:48;26.07;;;12.17;;
2305;SDS011;1161;51.922;8.896;2022-10-31T12:05:17;28.77;;;12.30;;
2305;SDS011;1161;51.922;8.896;2022-10-31T12:07:47;17.97;;;11.20;;
2305;SDS011;1161;51.922;8.896;2022-10-31T12:10:15;28.97;;;12.20;;
2305;SDS011;1161;51.922;8.896;2022-10-31T12:15:33;24.00;;;11.20;;
2305;SDS011;1161;51.922;8.896;2022-10-31T12:21:04;22.40;;;10.80;;
2305;SDS011;1161;51.922;8.896;2022-10-31T12:23:44;27.73;;;9.80;;
2305;SDS011;1161;51.922;8.896;2022-10-31T12:26:19;20.93;;;11.60;;
2305;SDS011;1161;51.922;8.896;2022-10-31T12:28:55;20.03;;;9.90;;
2305;SDS011;1161;51.922;8.896;2022-10-31T12:31:34;29.37;;;12.70;;
2305;SDS011;1161;51.922;8.896;2022-10-31T12:34:15;21.67;;;8.97;;
2305;SDS011;1161;51.922;8.896;2022-10-31T12:36:57;22.67;;;9.63;;
2305;SDS011;1161;51.922;8.896;2022-10-31T12:39:30;23.23;;;10.33;;
2305;SDS011;1161;51.922;8.896;2022-10-31T12:42:05;19.90;;;8.90;;
2305;SDS011;1161;51.922;8.896;2022-10-31T12:47:46;15.40;;;8.27;;
2305;SDS011;1161;51.922;8.896;2022-10-31T12:50:34;20.50;;;9.77;;
2305;SDS011;1161;51.922;8.896;2022-10-31T12:53:14;16.47;;;9.63;;
2305;SDS011;1161;51.922;8.896;2022-10-31T12:55:55;19.53;;;9.03;;
2305;SDS011;1161;51.922;8.896;2022-10-31T12:58:31;21.83;;;10.07;;
2305;SDS011;1161;51.922;8.896;2022-10-31T13:01:03;14.60;;;9.10;;
2305;SDS011;1161;51.922;8.896;2022-10-31T13:03:35;18.17;;;9.00;;
2305;SDS011;1161;51.922;8.896;2022-10-31T13:06:07;19.30;;;8.80;;
2305;SDS011;1161;51.922;8.896;2022-10-31T13:08:38;18.60;;;8.90;;
2305;SDS011;1161;51.922;8.896;2022-10-31T13:11:08;15.83;;;8.80;;
2305;SDS011;1161;51.922;8.896;2022-10-31T13:13:38;18.40;;;8.30;;
2305;SDS011;1161;51.922;8.896;2022-10-31T13:16:09;15.67;;;10.00;;
2305;SDS011;1161;51.922;8.896;2022-10-31T13:18:39;20.00;;;9.00;;
2305;SDS011;1161;51.922;8.896;2022-10-31T13:21:08;18.60;;;8.20;;
2305;SDS011;1161;51.922;8.896;2022-10-31T13:23:38;20.17;;;9.27;;
2305;SDS011;1161;51.922;8.896;2022-10-31T13:26:06;15.43;;;8.60;;
2305;SDS011;1161;51.922;8.896;2022-10-31T13:28:37;20.03;;;9.77;;
2305;SDS011;1161;51.922;8.896;2022-10-31T13:31:08;18.23;;;9.10;;
2305;SDS011;1161;51.922;8.896;2022-10-31T13:33:37;22.13;;;10.97;;
2305;SDS011;1161;51.922;8.896;2022-10-31T13:36:09;21.33;;;9.97;;
2305;SDS011;1161;51.922;8.896;2022-10-31T13:38:46;16.43;;;9.10;;
2305;SDS011;1161;51.922;8.896;2022-10-31T13:41:20;13.80;;;8.23;;
2305;SDS011;1161;51.922;8.896;2022-10-31T13:43:59;21.00;;;10.57;;
2305;SDS011;1161;51.922;8.896;2022-10-31T13:46:34;19.30;;;10.50;;
2305;SDS011;1161;51.922;8.896;2022-10-31T13:49:02;21.33;;;10.27;;
2305;SDS011;1161;51.922;8.896;2022-10-31T13:51:30;16.13;;;9.27;;
2305;SDS011;1161;51.922;8.896;2022-10-31T13:54:00;15.20;;;9.20;;
2305;SDS011;1161;51.922;8.896;2022-10-31T13:56:29;23.03;;;9.63;;
2305;SDS011;1161;51.922;8.896;2022-10-31T13:59:00;22.87;;;10.57;;
2305;SDS011;1161;51.922;8.896;2022-10-31T14:01:29;14.13;;;8.90;;
2305;SDS011;1161;51.922;8.896;2022-10-31T14:03:57;24.40;;;8.90;;
2305;SDS011;1161;51.922;8.896;2022-10-31T14:06:39;20.03;;;10.20;;
2305;SDS011;1161;51.922;8.896;2022-10-31T14:09:20;17.30;;;10.07;;
2305;SDS011;1161;51.922;8.896;2022-10-31T14:11:50;16.50;;;9.33;;
2305;SDS011;1161;51.922;8.896;2022-10-31T14:14:17;18.07;;;10.83;;
2305;SDS011;1161;51.922;8.896;2022-10-31T14:16:44;26.30;;;11.17;;
2305;SDS011;1161;51.922;8.896;2022-10-31T14:19:16;18.90;;;9.17;;
2305;SDS011;1161;51.922;8.896;2022-10-31T14:21:45;25.47;;;9.27;;
2305;SDS011;1161;51.922;8.896;2022-10-31T14:24:14;18.70;;;8.90;;
2305;SDS011;1161;51.922;8.896;2022-10-31T14:26:52;21.70;;;9.33;;
2305;SDS011;1161;51.922;8.896;2022-10-31T14:29:21;20.60;;;9.00;;
2305;SDS011;1161;51.922;8.896;2022-10-31T14:31:54;15.50;;;9.00;;
2305;SDS011;1161;51.922;8.896;2022-10-31T14:34:23;20.90;;;9.67;;
2305;SDS011;1161;51.922;8.896;2022-10-31T14:37:04;14.60;;;9.40;;
2305;SDS011;1161;51.922;8.896;2022-10-31T14:39:40;15.60;;;9.13;;
2305;SDS011;1161;51.922;8.896;2022-10-31T14:42:21;20.67;;;10.53;;
2305;SDS011;1161;51.922;8.896;2022-10-31T14:45:05;21.07;;;9.67;;
2305;SDS011;1161;51.922;8.896;2022-10-31T14:47:42;17.40;;;8.70;;
2305;SDS011;1161;51.922;8.896;2022-10-31T14:50:21;27.30;;;10.03;;
2305;SDS011;1161;51.922;8.896;2022-10-31T14:52:52;15.27;;;8.70;;
2305;SDS011;1161;51.922;8.896;2022-10-31T14:55:21;17.70;;;10.83;;
2305;SDS011;1161;51.922;8.896;2022-10-31T14:57:51;29.70;;;11.53;;
2305;SDS011;1161;51.922;8.896;2022-10-31T15:00:19;19.10;;;10.17;;
2305;SDS011;1161;51.922;8.896;2022-10-31T15:02:49;16.27;;;10.17;;
2305;SDS011;1161;51.922;8.896;2022-10-31T15:05:21;20.03;;;9.90;;
2305;SDS011;1161;51.922;8.896;2022-10-31T15:07:50;16.50;;;9.77;;
2305;SDS011;1161;51.922;8.896;2022-10-31T15:10:21;25.83;;;10.73;;
2305;SDS011;1161;51.922;8.896;2022-10-31T15:12:48;18.20;;;9.70;;
2305;SDS011;1161;51.922;8.896;2022-10-31T15:15:18;25.53;;;10.77;;
2305;SDS011;1161;51.922;8.896;2022-10-31T15:17:47;20.47;;;9.70;;
2305;SDS011;1161;51.922;8.896;2022-10-31T15:20:17;26.63;;;11.23;;